sensor_id;sensor_type;location;lat;lon;timestamp;pressure;altitude;pressure_sealevel;temperature;humidity
79285;BME280;68734;50.452;11.636;2023-04-24T11:33:27;94518.50;;;11.20;55.49
79285;BME280;68734;50.452;11.636;2023-04-24T11:35:53;94507.81;;;11.53;56.16
79285;BME280;68734;50.452;11.636;2023-04-24T11:38:18;94504.31;;;11.71;55.17
79285;BME280;68734;50.452;11.636;2023-04-24T11:40:44;94504.16;;;11.82;53.21
79285;BME280;68734;50.452;11.636;2023-04-24T11:43:11;94509.94;;;11.94;51.36
79285;BME280;68734;50.452;11.636;2023-04-24T11:45:36;94520.19;;;11.97;50.90
79285;BME280;68734;50.452;11.636;2023-04-24T11:48:03;94522.75;;;12.07;50.40
79285;BME280;68734;50.452;11.636;2023-04-24T11:50:28;94521.84;;;12.31;48.69
79285;BME280;68734;50.452;11.636;2023-04-24T11:52:56;94525.41;;;12.26;47.26
79285;BME280;68734;50.452;11.636;2023-04-24T11:55:22;94521.34;;;12.10;47.63
79285;BME280;68734;50.452;11.636;2023-04-24T11:57:54;94528.22;;;12.02;47.95
79285;BME280;68734;50.452;11.636;2023-04-24T12:02:51;94536.72;;;11.95;48.27
79285;BME280;68734;50.452;11.636;2023-04-24T12:05:20;94535.31;;;11.98;47.48
79285;BME280;68734;50.452;11.636;2023-04-24T12:07:46;94526.66;;;11.58;47.17
79285;BME280;68734;50.452;11.636;2023-04-24T12:10:12;94529.78;;;11.46;46.84
79285;BME280;68734;50.452;11.636;2023-04-24T12:12:37;94534.06;;;11.28;48.15
79285;BME280;68734;50.452;11.636;2023-04-24T12:15:07;94524.50;;;11.17;49.02
79285;BME280;68734;50.452;11.636;2023-04-24T12:17:34;94528.91;;;11.32;48.30
79285;BME280;68734;50.452;11.636;2023-04-24T12:20:06;94525.78;;;11.44;50.44
79285;BME280;68734;50.452;11.636;2023-04-24T12:22:51;94523.66;;;11.41;49.57
79285;BME280;68734;50.452;11.636;2023-04-24T12:25:20;94520.78;;;11.13;49.39
79285;BME280;68734;50.452;11.636;2023-04-24T12:27:46;94522.75;;;11.26;50.59
79285;BME280;68734;50.452;11.636;2023-04-24T12:30:17;94514.97;;;11.44;51.20
79285;BME280;68734;50.452;11.636;2023-04-24T12:32:48;94521.25;;;11.58;49.23
79285;BME280;68734;50.452;11.636;2023-04-24T12:35:18;94529.66;;;11.56;49.44
79285;BME280;68734;50.452;11.636;2023-04-24T12:37:45;94522.59;;;11.80;50.01
79285;BME280;68734;50.452;11.636;2023-04-24T12:40:13;94526.38;;;11.78;49.28
79285;BME280;68734;50.452;11.636;2023-04-24T12:48:30;94546.03;;;11.22;50.51
79285;BME280;68734;50.452;11.636;2023-04-24T12:50:59;94556.06;;;11.22;51.40
79285;BME280;68734;50.452;11.636;2023-04-24T12:53:28;94552.44;;;11.31;51.70
79285;BME280;68734;50.452;11.636;2023-04-24T12:55:59;94542.03;;;10.95;51.54
79285;BME280;68734;50.452;11.636;2023-04-24T12:58:26;94561.00;;;10.90;51.08
79285;BME280;68734;50.452;11.636;2023-04-24T13:04:13;94543.03;;;11.05;50.50
79285;BME280;68734;50.452;11.636;2023-04-24T13:06:39;94564.91;;;11.27;50.33
79285;BME280;68734;50.452;11.636;2023-04-24T13:09:04;94559.94;;;11.34;51.23
79285;BME280;68734;50.452;11.636;2023-04-24T13:11:30;94558.78;;;11.65;50.34
79285;BME280;68734;50.452;11.636;2023-04-24T13:13:55;94560.00;;;11.72;49.52
79285;BME280;68734;50.452;11.636;2023-04-24T13:16:21;94552.19;;;11.71;48.91
79285;BME280;68734;50.452;11.636;2023-04-24T13:18:48;94549.47;;;11.52;48.53
79285;BME280;68734;50.452;11.636;2023-04-24T13:21:13;94555.38;;;11.54;49.41
79285;BME280;68734;50.452;11.636;2023-04-24T13:23:39;94555.34;;;11.59;50.53
79285;BME280;68734;50.452;11.636;2023-04-24T13:26:06;94547.78;;;11.56;49.75
79285;BME280;68734;50.452;11.636;2023-04-24T13:28:32;94549.19;;;11.72;50.97
79285;BME280;68734;50.452;11.636;2023-04-24T13:30:58;94555.50;;;11.87;50.40
79285;BME280;68734;50.452;11.636;2023-04-24T13:33:23;94559.25;;;11.48;50.21
79285;BME280;68734;50.452;11.636;2023-04-24T13:35:49;94572.84;;;11.43;50.68
79285;BME280;68734;50.452;11.636;2023-04-24T13:38:15;94573.88;;;11.47;49.97
79285;BME280;68734;50.452;11.636;2023-04-24T13:40:43;94573.53;;;11.72;50.33
79285;BME280;68734;50.452;11.636;2023-04-24T13:43:09;94579.09;;;11.81;48.71
79285;BME280;68734;50.452;11.636;2023-04-24T13:45:34;94585.00;;;11.64;49.45
79285;BME280;68734;50.452;11.636;2023-04-24T13:48:00;94574.19;;;11.21;49.92
79285;BME280;68734;50.452;11.636;2023-04-24T13:50:26;94570.56;;;10.48;52.31
79285;BME280;68734;50.452;11.636;2023-04-24T13:52:52;94577.50;;;10.60;52.86
79285;BME280;68734;50.452;11.636;2023-04-24T13:55:18;94565.16;;;10.48;53.27
79285;BME280;68734;50.452;11.636;2023-04-24T13:57:43;94577.19;;;10.32;53.11
79285;BME280;68734;50.452;11.636;2023-04-24T14:00:12;94571.84;;;10.22;53.35
79285;BME280;68734;50.452;11.636;2023-04-24T14:02:38;94568.19;;;10.07;54.52
79285;BME280;68734;50.452;11.636;2023-04-24T14:05:04;94572.19;;;10.15;55.40
79285;BME280;68734;50.452;11.636;2023-04-24T14:07:30;94570.44;;;10.34;54.84
79285;BME280;68734;50.452;11.636;2023-04-24T14:09:55;94568.47;;;10.40;54.20
79285;BME280;68734;50.452;11.636;2023-04-24T14:12:20;94567.94;;;10.43;54.64
79285;BME280;68734;50.452;11.636;2023-04-24T14:14:46;94587.91;;;10.42;54.42
79285;BME280;68734;50.452;11.636;2023-04-24T14:17:13;94581.41;;;10.04;57.41
79285;BME280;68734;50.452;11.636;2023-04-24T14:19:39;94588.66;;;9.64;60.22
79285;BME280;68734;50.452;11.636;2023-04-24T14:22:05;94603.25;;;9.63;63.04
79285;BME280;68734;50.452;11.636;2023-04-24T14:24:30;94610.03;;;9.55;65.64
79285;BME280;68734;50.452;11.636;2023-04-24T14:26:56;94606.81;;;9.48;66.73
79285;BME280;68734;50.452;11.636;2023-04-24T14:29:23;94605.50;;;9.40;66.48
79285;BME280;68734;50.452;11.636;2023-04-24T14:31:51;94599.50;;;9.53;66.93
79285;BME280;68734;50.452;11.636;2023-04-24T14:34:16;94595.50;;;9.51;67.88
79285;BME280;68734;50.452;11.636;2023-04-24T14:36:42;94596.53;;;9.55;67.00
79285;BME280;68734;50.452;11.636;2023-04-24T14:39:07;94593.53;;;9.67;66.98
79285;BME280;68734;50.452;11.636;2023-04-24T14:41:33;94585.72;;;9.65;66.80
79285;BME280;68734;50.452;11.636;2023-04-24T14:44:02;94593.78;;;9.65;66.08
79285;BME280;68734;50.452;11.636;2023-04-24T14:46:29;94597.09;;;9.52;66.73
79285;BME280;68734;50.452;11.636;2023-04-24T14:48:57;94599.31;;;9.39;67.17
79285;BME280;68734;50.452;11.636;2023-04-24T14:51:23;94605.22;;;9.47;65.91
79285;BME280;68734;50.452;11.636;2023-04-24T14:53:50;94601.31;;;9.73;65.68
79285;BME280;68734;50.452;11.636;2023-04-24T14:56:18;94596.34;;;9.91;64.67
79285;BME280;68734;50.452;11.636;2023-04-24T14:58:43;94600.69;;;9.87;64.66
79285;BME280;68734;50.452;11.636;2023-04-24T15:01:09;94596.91;;;9.88;63.51
79285;BME280;68734;50.452;11.636;2023-04-24T15:03:37;94609.03;;;9.90;64.08
79285;BME280;68734;50.452;11.636;2023-04-24T15:06:02;94600.69;;;9.87;65.35
79285;BME280;68734;50.452;11.636;2023-04-24T15:08:27;94613.47;;;9.66;65.55
79285;BME280;68734;50.452;11.636;2023-04-24T15:10:53;94611.72;;;9.35;66.12
79285;BME280;68734;50.452;11.636;2023-04-24T15:13:19;94618.28;;;9.04;68.88
79285;BME280;68734;50.452;11.636;2023-04-24T15:15:46;94612.91;;;8.93;69.09
79285;BME280;68734;50.452;11.636;2023-04-24T15:18:12;94613.25;;;9.52;68.08
79285;BME280;68734;50.452;11.636;2023-04-24T15:20:37;94626.22;;;10.05;65.90
79285;BME280;68734;50.452;11.636;2023-04-24T15:23:08;94622.72;;;9.99;64.71
79285;BME280;68734;50.452;11.636;2023-04-24T15:25:38;94612.97;;;10.08;63.41
79285;BME280;68734;50.452;11.636;2023-04-24T15:28:04;94604.22;;;10.22;62.76
79285;BME280;68734;50.452;11.636;2023-04-24T15:30:32;94607.09;;;9.96;62.01
79285;BME280;68734;50.452;11.636;2023-04-24T15:33:00;94599.19;;;9.70;61.27
79285;BME280;68734;50.452;11.636;2023-04-24T15:35:26;94601.59;;;9.07;60.87
79285;BME280;68734;50.452;11.636;2023-04-24T15:37:52;94606.38;;;9.25;61.86
79285;BME280;68734;50.452;11.636;2023-04-24T15:40:17;94618.19;;;9.34;61.41
79285;BME280;68734;50.452;11.636;2023-04-24T15:42:43;94623.16;;;8.96;61.75
79285;BME280;68734;50.452;11.636;2023-04-24T15:45:09;94628.81;;;9.00;60.99
79285;BME280;68734;50.452;11.636;2023-04-24T15:47:35;94640.44;;;8.44;61.70
79285;BME280;68734;50.452;11.636;2023-04-24T15:50:02;94641.47;;;8.74;62.83
79285;BME280;68734;50.452;11.636;2023-04-24T15:52:27;94642.03;;;8.71;62.44
79285;BME280;68734;50.452;11.636;2023-04-24T15:54:55;94641.75;;;8.36;63.75
79285;BME280;68734;50.452;11.636;2023-04-24T15:57:21;94642.03;;;8.40;63.20
79285;BME280;68734;50.452;11.636;2023-04-24T15:59:46;94653.34;;;8.68;65.14
79285;BME280;68734;50.452;11.636;2023-04-24T16:02:13;94660.59;;;8.67;65.15
79285;BME280;68734;50.452;11.636;2023-04-24T16:04:49;94659.25;;;8.75;65.20
79285;BME280;68734;50.452;11.636;2023-04-24T16:07:15;94666.25;;;8.66;65.42
79285;BME280;68734;50.452;11.636;2023-04-24T16:09:46;94672.09;;;8.11;67.86
79285;BME280;68734;50.452;11.636;2023-04-24T16:12:11;94681.22;;;7.90;70.86
79285;BME280;68734;50.452;11.636;2023-04-24T16:14:37;94680.97;;;7.96;73.42
79285;BME280;68734;50.452;11.636;2023-04-24T16:17:03;94674.72;;;7.86;72.03
79285;BME280;68734;50.452;11.636;2023-04-24T16:19:29;94681.78;;;8.02;73.14
79285;BME280;68734;50.452;11.636;2023-04-24T16:21:57;94683.22;;;7.57;73.56
79285;BME280;68734;50.452;11.636;2023-04-24T16:24:23;94691.84;;;7.59;74.51
79285;BME280;68734;50.452;11.636;2023-04-24T16:26:49;94690.84;;;7.86;74.19
79285;BME280;68734;50.452;11.636;2023-04-24T16:29:15;94688.25;;;8.06;73.54
79285;BME280;68734;50.452;11.636;2023-04-24T16:31:41;94690.66;;;8.13;73.07
79285;BME280;68734;50.452;11.636;2023-04-24T16:34:07;94694.13;;;8.03;73.10
79285;BME280;68734;50.452;11.636;2023-04-24T16:36:33;94691.44;;;8.03;73.10
79285;BME280;68734;50.452;11.636;2023-04-24T16:39:02;94689.81;;;7.92;73.31
79285;BME280;68734;50.452;11.636;2023-04-24T16:41:32;94689.31;;;8.00;73.97
79285;BME280;68734;50.452;11.636;2023-04-24T16:43:59;94683.41;;;8.08;72.77
79285;BME280;68734;50.452;11.636;2023-04-24T16:46:25;94687.69;;;8.09;73.14
79285;BME280;68734;50.452;11.636;2023-04-24T16:48:51;94679.09;;;8.02;72.04
79285;BME280;68734;50.452;11.636;2023-04-24T16:51:16;94682.31;;;8.04;72.67
79285;BME280;68734;50.452;11.636;2023-04-24T16:53:42;94687.91;;;7.87;71.55
79285;BME280;68734;50.452;11.636;2023-04-24T16:56:08;94678.97;;;7.71;71.59
79285;BME280;68734;50.452;11.636;2023-04-24T16:58:33;94681.66;;;7.66;71.41
79285;BME280;68734;50.452;11.636;2023-04-24T17:00:59;94683.22;;;7.57;71.60
79285;BME280;68734;50.452;11.636;2023-04-24T17:03:24;94692.91;;;7.53;72.11
79285;BME280;68734;50.452;11.636;2023-04-24T17:05:50;94696.09;;;7.45;72.11
79285;BME280;68734;50.452;11.636;2023-04-24T17:08:16;94691.22;;;7.42;71.97
79285;BME280;68734;50.452;11.636;2023-04-24T17:10:44;94685.03;;;7.41;71.63
79285;BME280;68734;50.452;11.636;2023-04-24T17:13:12;94695.47;;;7.32;72.53
79285;BME280;68734;50.452;11.636;2023-04-24T17:15:41;94691.72;;;7.33;73.37
79285;BME280;68734;50.452;11.636;2023-04-24T17:18:06;94695.72;;;7.26;73.09
79285;BME280;68734;50.452;11.636;2023-04-24T17:20:34;94706.75;;;7.29;73.06
79285;BME280;68734;50.452;11.636;2023-04-24T17:22:59;94702.47;;;7.33;72.64
79285;BME280;68734;50.452;11.636;2023-04-24T17:25:25;94710.81;;;7.32;72.93
79285;BME280;68734;50.452;11.636;2023-04-24T17:27:51;94712.09;;;7.29;73.16
79285;BME280;68734;50.452;11.636;2023-04-24T17:30:19;94719.06;;;7.25;72.52
79285;BME280;68734;50.452;11.636;2023-04-24T17:32:44;94712.09;;;7.24;72.96
79285;BME280;68734;50.452;11.636;2023-04-24T17:35:12;94714.22;;;7.22;73.15
79285;BME280;68734;50.452;11.636;2023-04-24T17:37:38;94719.00;;;7.10;73.36
79285;BME280;68734;50.452;11.636;2023-04-24T17:40:06;94718.44;;;7.08;73.71
79285;BME280;68734;50.452;11.636;2023-04-24T17:42:32;94731.31;;;7.06;73.84
79285;BME280;68734;50.452;11.636;2023-04-24T17:44:57;94734.50;;;7.03;74.47
79285;BME280;68734;50.452;11.636;2023-04-24T17:47:25;94725.84;;;6.95;74.34
79285;BME280;68734;50.452;11.636;2023-04-24T17:49:51;94727.97;;;6.88;75.19
79285;BME280;68734;50.452;11.636;2023-04-24T17:52:17;94734.06;;;6.78;75.56
79285;BME280;68734;50.452;11.636;2023-04-24T17:54:42;94734.53;;;6.70;75.93
79285;BME280;68734;50.452;11.636;2023-04-24T17:57:07;94730.41;;;6.57;75.89
79285;BME280;68734;50.452;11.636;2023-04-24T17:59:34;94734.56;;;6.43;76.66
79285;BME280;68734;50.452;11.636;2023-04-24T18:01:59;94737.69;;;6.35;76.70
79285;BME280;68734;50.452;11.636;2023-04-24T18:04:24;94738.72;;;6.29;77.37
79285;BME280;68734;50.452;11.636;2023-04-24T18:06:50;94741.38;;;6.24;77.56
79285;BME280;68734;50.452;11.636;2023-04-24T18:09:15;94730.53;;;6.13;77.10
79285;BME280;68734;50.452;11.636;2023-04-24T18:11:43;94747.72;;;6.17;77.23
79285;BME280;68734;50.452;11.636;2023-04-24T18:14:12;94746.88;;;6.12;76.85
79285;BME280;68734;50.452;11.636;2023-04-24T18:16:38;94753.97;;;6.01;77.69
79285;BME280;68734;50.452;11.636;2023-04-24T18:19:03;94753.34;;;5.94;78.47
79285;BME280;68734;50.452;11.636;2023-04-24T18:21:31;94765.22;;;5.98;78.24
79285;BME280;68734;50.452;11.636;2023-04-24T18:23:59;94771.06;;;5.95;78.68
79285;BME280;68734;50.452;11.636;2023-04-24T18:26:27;94770.56;;;5.98;78.38
79285;BME280;68734;50.452;11.636;2023-04-24T18:28:55;94759.19;;;5.91;78.33
79285;BME280;68734;50.452;11.636;2023-04-24T18:31:22;94768.63;;;5.93;78.67
79285;BME280;68734;50.452;11.636;2023-04-24T18:33:48;94767.19;;;5.86;78.88
79285;BME280;68734;50.452;11.636;2023-04-24T18:36:13;94771.47;;;5.87;79.07
79285;BME280;68734;50.452;11.636;2023-04-24T18:38:39;94779.34;;;5.93;78.80
79285;BME280;68734;50.452;11.636;2023-04-24T18:41:04;94776.41;;;5.95;78.97
79285;BME280;68734;50.452;11.636;2023-04-24T18:43:30;94783.41;;;5.96;79.24
79285;BME280;68734;50.452;11.636;2023-04-24T18:45:55;94778.06;;;5.96;78.47
79285;BME280;68734;50.452;11.636;2023-04-24T18:48:21;94779.16;;;6.00;79.01
79285;BME280;68734;50.452;11.636;2023-04-24T18:50:46;94784.84;;;6.04;79.04
79285;BME280;68734;50.452;11.636;2023-04-24T18:53:11;94776.81;;;6.04;79.17
79285;BME280;68734;50.452;11.636;2023-04-24T18:55:39;94780.28;;;6.04;79.18
79285;BME280;68734;50.452;11.636;2023-04-24T18:58:05;94784.53;;;6.00;79.12
79285;BME280;68734;50.452;11.636;2023-04-24T19:00:30;94792.06;;;6.03;79.42
79285;BME280;68734;50.452;11.636;2023-04-24T19:02:56;94795.75;;;5.97;79.27
79285;BME280;68734;50.452;11.636;2023-04-24T19:05:21;94802.06;;;5.91;79.62
79285;BME280;68734;50.452;11.636;2023-04-24T19:07:47;94801.47;;;5.84;80.05
79285;BME280;68734;50.452;11.636;2023-04-24T19:10:12;94790.63;;;5.73;80.41
79285;BME280;68734;50.452;11.636;2023-04-24T19:12:40;94806.53;;;5.63;80.81
79285;BME280;68734;50.452;11.636;2023-04-24T19:15:08;94802.16;;;5.57;81.37
79285;BME280;68734;50.452;11.636;2023-04-24T19:17:39;94813.88;;;5.51;81.61
79285;BME280;68734;50.452;11.636;2023-04-24T19:20:05;94820.22;;;5.45;81.92
79285;BME280;68734;50.452;11.636;2023-04-24T19:22:30;94806.44;;;5.36;81.84
79285;BME280;68734;50.452;11.636;2023-04-24T19:24:56;94806.44;;;5.36;82.21
79285;BME280;68734;50.452;11.636;2023-04-24T19:27:23;94820.63;;;5.36;82.36
79285;BME280;68734;50.452;11.636;2023-04-24T19:29:49;94817.16;;;5.36;82.34
79285;BME280;68734;50.452;11.636;2023-04-24T19:32:16;94817.94;;;5.36;82.07
79285;BME280;68734;50.452;11.636;2023-04-24T19:34:41;94819.81;;;5.36;82.19
79285;BME280;68734;50.452;11.636;2023-04-24T19:37:09;94820.63;;;5.36;82.61
79285;BME280;68734;50.452;11.636;2023-04-24T19:39:35;94815.84;;;5.38;82.27
79285;BME280;68734;50.452;11.636;2023-04-24T19:42:00;94817.47;;;5.39;82.48
79285;BME280;68734;50.452;11.636;2023-04-24T19:44:27;94819.31;;;5.39;82.77
79285;BME280;68734;50.452;11.636;2023-04-24T19:46:52;94817.94;;;5.36;82.97
79285;BME280;68734;50.452;11.636;2023-04-24T19:49:17;94811.78;;;5.36;82.91
79285;BME280;68734;50.452;11.636;2023-04-24T19:51:43;94811.22;;;5.34;83.08
79285;BME280;68734;50.452;11.636;2023-04-24T19:54:08;94804.50;;;5.31;83.45
79285;BME280;68734;50.452;11.636;2023-04-24T19:56:36;94810.25;;;5.23;83.40
79285;BME280;68734;50.452;11.636;2023-04-24T19:59:01;94807.69;;;5.11;83.50
79285;BME280;68734;50.452;11.636;2023-04-24T20:01:28;94809.38;;;5.00;84.01
79285;BME280;68734;50.452;11.636;2023-04-24T20:03:53;94810.28;;;4.89;84.57
79285;BME280;68734;50.452;11.636;2023-04-24T20:06:19;94815.06;;;4.87;84.91
79285;BME280;68734;50.452;11.636;2023-04-24T20:08:44;94815.19;;;4.80;85.13
79285;BME280;68734;50.452;11.636;2023-04-24T20:11:10;94810.03;;;4.74;85.28
79285;BME280;68734;50.452;11.636;2023-04-24T20:13:35;94805.88;;;4.66;85.43
79285;BME280;68734;50.452;11.636;2023-04-24T20:16:01;94814.41;;;4.63;85.74
79285;BME280;68734;50.452;11.636;2023-04-24T20:18:26;94817.78;;;4.58;85.92
79285;BME280;68734;50.452;11.636;2023-04-24T20:20:54;94821.19;;;4.54;86.24
79285;BME280;68734;50.452;11.636;2023-04-24T20:23:22;94815.66;;;4.44;86.31
79285;BME280;68734;50.452;11.636;2023-04-24T20:25:47;94818.09;;;4.45;86.52
79285;BME280;68734;50.452;11.636;2023-04-24T20:28:13;94814.00;;;4.43;86.56
79285;BME280;68734;50.452;11.636;2023-04-24T20:30:39;94820.66;;;4.40;87.10
79285;BME280;68734;50.452;11.636;2023-04-24T20:33:04;94820.81;;;4.33;87.13
79285;BME280;68734;50.452;11.636;2023-04-24T20:35:30;94823.16;;;4.30;86.89
79285;BME280;68734;50.452;11.636;2023-04-24T20:37:55;94811.69;;;4.17;87.54
79285;BME280;68734;50.452;11.636;2023-04-24T20:40:22;94822.16;;;4.19;87.66
79285;BME280;68734;50.452;11.636;2023-04-24T20:42:48;94818.66;;;4.18;87.65
79285;BME280;68734;50.452;11.636;2023-04-24T20:45:15;94808.44;;;4.15;87.50
79285;BME280;68734;50.452;11.636;2023-04-24T20:47:42;94811.00;;;4.10;87.44
79285;BME280;68734;50.452;11.636;2023-04-24T20:50:07;94816.84;;;4.07;87.66
79285;BME280;68734;50.452;11.636;2023-04-24T20:52:33;94816.84;;;4.07;87.48
79285;BME280;68734;50.452;11.636;2023-04-24T20:55:01;94809.06;;;4.06;87.42
79285;BME280;68734;50.452;11.636;2023-04-24T20:57:28;94815.69;;;4.03;87.59
79285;BME280;68734;50.452;11.636;2023-04-24T20:59:54;94801.66;;;3.96;87.90
79285;BME280;68734;50.452;11.636;2023-04-24T21:02:22;94799.44;;;3.93;87.94
79285;BME280;68734;50.452;11.636;2023-04-24T21:04:47;94796.19;;;3.91;87.94
79285;BME280;68734;50.452;11.636;2023-04-24T21:07:12;94804.19;;;3.91;87.88
79285;BME280;68734;50.452;11.636;2023-04-24T21:09:39;94797.13;;;3.85;88.19
79285;BME280;68734;50.452;11.636;2023-04-24T21:12:05;94794.38;;;3.79;88.55
79285;BME280;68734;50.452;11.636;2023-04-24T21:14:32;94792.44;;;3.75;88.27
79285;BME280;68734;50.452;11.636;2023-04-24T21:16:58;94803.91;;;3.75;88.61
79285;BME280;68734;50.452;11.636;2023-04-24T21:19:26;94800.66;;;3.73;88.54
79285;BME280;68734;50.452;11.636;2023-04-24T21:21:53;94791.38;;;3.64;88.38
79285;BME280;68734;50.452;11.636;2023-04-24T21:24:19;94794.63;;;3.66;88.69
79285;BME280;68734;50.452;11.636;2023-04-24T21:26:47;94798.38;;;3.65;88.85
79285;BME280;68734;50.452;11.636;2023-04-24T21:29:16;94796.72;;;3.64;89.06
79285;BME280;68734;50.452;11.636;2023-04-24T21:31:41;94789.44;;;3.59;89.18
79285;BME280;68734;50.452;11.636;2023-04-24T21:34:07;94792.44;;;3.63;88.81
79285;BME280;68734;50.452;11.636;2023-04-24T21:36:35;94795.56;;;3.60;88.92
79285;BME280;68734;50.452;11.636;2023-04-24T21:39:00;94792.91;;;3.60;88.97
79285;BME280;68734;50.452;11.636;2023-04-24T21:41:26;94789.56;;;3.53;88.92
79285;BME280;68734;50.452;11.636;2023-04-24T21:43:51;94793.28;;;3.52;88.95
79285;BME280;68734;50.452;11.636;2023-04-24T21:46:17;94780.88;;;3.46;88.77
79285;BME280;68734;50.452;11.636;2023-04-24T21:48:42;94777.72;;;3.49;88.83
79285;BME280;68734;50.452;11.636;2023-04-24T21:51:08;94781.09;;;3.44;88.66
79285;BME280;68734;50.452;11.636;2023-04-24T21:53:33;94791.78;;;3.44;88.71
79285;BME280;68734;50.452;11.636;2023-04-24T21:55:59;94790.38;;;3.42;88.74
79285;BME280;68734;50.452;11.636;2023-04-24T21:58:25;94787.38;;;3.38;88.25
79285;BME280;68734;50.452;11.636;2023-04-24T22:00:50;94792.91;;;3.48;88.00
79285;BME280;68734;50.452;11.636;2023-04-24T22:03:16;94800.69;;;3.50;87.81
79285;BME280;68734;50.452;11.636;2023-04-24T22:05:42;94785.97;;;3.47;87.72
79285;BME280;68734;50.452;11.636;2023-04-24T22:08:07;94791.53;;;3.46;87.34
79285;BME280;68734;50.452;11.636;2023-04-24T22:10:33;94787.22;;;3.45;87.33
79285;BME280;68734;50.452;11.636;2023-04-24T22:12:58;94780.28;;;3.44;87.70
79285;BME280;68734;50.452;11.636;2023-04-24T22:15:23;94779.91;;;3.52;87.47
79285;BME280;68734;50.452;11.636;2023-04-24T22:17:49;94774.69;;;3.57;87.42
79285;BME280;68734;50.452;11.636;2023-04-24T22:20:16;94775.38;;;3.64;87.04
79285;BME280;68734;50.452;11.636;2023-04-24T22:22:46;94773.84;;;3.68;87.25
79285;BME280;68734;50.452;11.636;2023-04-24T22:25:16;94772.31;;;3.72;87.24
79285;BME280;68734;50.452;11.636;2023-04-24T22:27:42;94772.09;;;3.74;87.01
79285;BME280;68734;50.452;11.636;2023-04-24T22:30:08;94768.13;;;3.76;87.48
79285;BME280;68734;50.452;11.636;2023-04-24T22:32:34;94769.78;;;3.77;87.40
79285;BME280;68734;50.452;11.636;2023-04-24T22:35:00;94770.13;;;3.69;87.43
79285;BME280;68734;50.452;11.636;2023-04-24T22:37:25;94768.28;;;3.70;87.42
79285;BME280;68734;50.452;11.636;2023-04-24T22:39:54;94769.06;;;3.70;87.99
79285;BME280;68734;50.452;11.636;2023-04-24T22:42:19;94774.41;;;3.70;88.08
79285;BME280;68734;50.452;11.636;2023-04-24T22:44:45;94767.47;;;3.69;88.45
79285;BME280;68734;50.452;11.636;2023-04-24T22:47:10;94773.97;;;3.73;88.47
79285;BME280;68734;50.452;11.636;2023-04-24T22:49:36;94768.63;;;3.73;88.59
79285;BME280;68734;50.452;11.636;2023-04-24T22:52:01;94761.97;;;3.76;88.97
79285;BME280;68734;50.452;11.636;2023-04-24T22:54:31;94766.72;;;3.86;88.51
79285;BME280;68734;50.452;11.636;2023-04-24T22:56:57;94761.56;;;3.96;88.41
79285;BME280;68734;50.452;11.636;2023-04-24T22:59:28;94768.25;;;4.10;88.12
79285;BME280;68734;50.452;11.636;2023-04-24T23:01:54;94752.66;;;4.19;88.04
79285;BME280;68734;50.452;11.636;2023-04-24T23:04:20;94756.31;;;4.30;87.52
79285;BME280;68734;50.452;11.636;2023-04-24T23:06:46;94750.00;;;4.36;87.00
79285;BME280;68734;50.452;11.636;2023-04-24T23:09:11;94753.91;;;4.45;87.35
79285;BME280;68734;50.452;11.636;2023-04-24T23:11:37;94756.66;;;4.50;87.46
79285;BME280;68734;50.452;11.636;2023-04-24T23:14:02;94742.25;;;4.51;87.38
79285;BME280;68734;50.452;11.636;2023-04-24T23:16:28;94755.69;;;4.56;87.50
79285;BME280;68734;50.452;11.636;2023-04-24T23:18:55;94746.97;;;4.61;87.45
79285;BME280;68734;50.452;11.636;2023-04-24T23:21:21;94747.25;;;4.65;87.37
79285;BME280;68734;50.452;11.636;2023-04-24T23:23:48;94739.00;;;4.66;87.34
79285;BME280;68734;50.452;11.636;2023-04-24T23:26:15;94750.03;;;4.70;87.25
79285;BME280;68734;50.452;11.636;2023-04-24T23:28:40;94749.53;;;4.73;86.91
79285;BME280;68734;50.452;11.636;2023-04-24T23:31:08;94741.59;;;4.78;86.82
79285;BME280;68734;50.452;11.636;2023-04-24T23:33:33;94748.56;;;4.79;86.51
79285;BME280;68734;50.452;11.636;2023-04-24T23:35:59;94731.94;;;4.77;86.57
79285;BME280;68734;50.452;11.636;2023-04-24T23:38:24;94737.84;;;4.79;86.68
79285;BME280;68734;50.452;11.636;2023-04-24T23:40:50;94738.50;;;4.86;87.03
79285;BME280;68734;50.452;11.636;2023-04-24T23:43:16;94730.47;;;4.86;87.16
79285;BME280;68734;50.452;11.636;2023-04-24T23:45:44;94732.13;;;4.87;87.33
79285;BME280;68734;50.452;11.636;2023-04-24T23:48:09;94729.44;;;4.87;87.76
79285;BME280;68734;50.452;11.636;2023-04-24T23:50:35;94720.84;;;4.85;87.48
79285;BME280;68734;50.452;11.636;2023-04-24T23:53:00;94722.47;;;4.86;87.88
79285;BME280;68734;50.452;11.636;2023-04-24T23:55:26;94717.00;;;4.81;87.95
79285;BME280;68734;50.452;11.636;2023-04-24T23:57:51;94724.00;;;4.82;87.99
